Time;durP1;ratioP1;P1;durP2;ratioP2;P2;SDS_P1;SDS_P2;PMS_P1;PMS_P2;Temp;Humidity;BMP_temperature;BMP_pressure;BME280_temperature;BME280_humidity;BME280_pressure;Samples;Min_cycle;Max_cycle;Signal;HPM_P1;HPM_P2
2022/11/06 04:01:25;;;;;;;;;;;8.00;99.90;;;;;;5766160;23;19929;-67
2022/11/06 04:03:54;;;;;;;;;;;8.00;99.90;;;;;;4975855;28;20033;-70
2022/11/06 04:06:23;;;;;;;;;;;8.00;99.90;;;;;;4967381;28;20381;-70
2022/11/06 04:14:22;;;;;;;;;;;7.90;99.90;;;;;;4952434;28;19922;-69
2022/11/06 04:16:53;;;;;;;;;;;7.90;99.90;;;;;;4948964;28;19926;-69
2022/11/06 04:19:20;;;;;;;;;;;8.00;99.90;;;;;;4955110;28;20021;-69
2022/11/06 04:21:50;;;;;;;;;;;8.00;99.90;;;;;;4961221;28;19973;-69
2022/11/06 04:27:22;;;;;;;;;;;8.00;99.90;;;;;;4957976;28;20404;-69
2022/11/06 04:29:55;;;;;;;;;;;8.10;99.90;;;;;;4949131;28;20342;-68
2022/11/06 04:32:29;;;;;;;;;;;8.10;99.90;;;;;;4951810;28;20480;-69
2022/11/06 04:35:00;;;;;;;;;;;8.10;99.90;;;;;;4941682;28;19930;-69
2022/11/06 04:37:31;;;;;;;;;;;8.10;99.90;;;;;;4947308;28;20373;-69
2022/11/06 04:40:03;;;;;;;;;;;8.10;99.90;;;;;;4960595;28;19927;-69
2022/11/06 04:42:33;;;;;;;;;;;8.20;99.90;;;;;;4945889;28;19981;-69
2022/11/06 04:45:03;;;;;;;;;;;8.20;99.90;;;;;;4968193;23;19950;-69
2022/11/06 04:47:31;;;;;;;;;;;8.10;99.90;;;;;;4965057;28;19927;-69
2022/11/06 04:49:59;;;;;;;;;;;8.10;99.90;;;;;;4962539;28;19934;-69
2022/11/06 04:52:27;;;;;;;;;;;8.00;99.90;;;;;;4958237;28;19926;-69
2022/11/06 04:54:55;;;;;;;;;;;7.90;99.90;;;;;;4970700;28;19941;-69
2022/11/06 04:57:22;;;;;;;;;;;7.90;99.90;;;;;;4958738;28;20349;-70
2022/11/06 04:59:49;;;;;;;;;;;7.90;99.90;;;;;;4964364;28;20524;-70
2022/11/06 05:02:15;;;;;;;;;;;7.90;99.90;;;;;;4969124;28;20448;-70
2022/11/06 05:04:44;;;;;;;;;;;7.90;99.90;;;;;;4958024;28;19927;-70
2022/11/06 05:07:12;;;;;;;;;;;7.90;99.90;;;;;;4961487;28;19974;-71
2022/11/06 05:09:39;;;;;;;;;;;7.80;99.90;;;;;;4970354;28;20448;-70
2022/11/06 05:12:06;;;;;;;;;;;7.80;99.90;;;;;;4962227;28;19926;-71
2022/11/06 05:14:33;;;;;;;;;;;7.70;99.90;;;;;;4962552;28;19948;-70
2022/11/06 05:16:59;;;;;;;;;;;7.70;99.90;;;;;;4967845;28;19930;-70
2022/11/06 05:19:26;;;;;;;;;;;7.60;99.90;;;;;;4958523;28;19927;-72
2022/11/06 05:24:38;;;;;;;;;;;7.60;99.90;;;;;;4964110;28;19965;-70
2022/11/06 05:27:05;;;;;;;;;;;7.70;99.90;;;;;;4962999;28;20389;-71
2022/11/06 05:29:32;;;;;;;;;;;7.60;99.90;;;;;;4958765;28;20483;-70
2022/11/06 05:31:58;;;;;;;;;;;7.60;99.90;;;;;;4959220;28;19926;-70
2022/11/06 05:34:25;;;;;;;;;;;7.60;99.90;;;;;;4963131;28;19926;-70
2022/11/06 05:36:52;;;;;;;;;;;7.70;99.90;;;;;;4971517;28;19934;-71
2022/11/06 05:39:20;;;;;;;;;;;7.70;99.90;;;;;;4969290;28;19926;-70
2022/11/06 05:41:47;;;;;;;;;;;7.60;99.90;;;;;;4962634;28;19993;-71
2022/11/06 05:44:14;;;;;;;;;;;7.60;99.90;;;;;;4962376;28;19933;-71
2022/11/06 05:46:41;;;;;;;;;;;7.50;99.90;;;;;;4965210;28;20360;-68
2022/11/06 05:49:08;;;;;;;;;;;7.60;99.90;;;;;;4967675;28;20278;-70
2022/11/06 05:51:35;;;;;;;;;;;7.70;99.90;;;;;;4969243;28;19977;-69
2022/11/06 05:54:03;;;;;;;;;;;7.70;99.90;;;;;;4966781;28;20604;-68
2022/11/06 05:56:31;;;;;;;;;;;7.60;99.90;;;;;;4958041;28;19933;-68
2022/11/06 05:58:58;;;;;;;;;;;7.70;99.90;;;;;;4960310;28;19926;-68
2022/11/06 06:01:25;;;;;;;;;;;7.60;99.90;;;;;;4963249;28;19926;-70
2022/11/06 06:03:51;;;;;;;;;;;7.60;99.90;;;;;;4973248;28;19926;-68
2022/11/06 06:06:19;;;;;;;;;;;7.70;99.90;;;;;;4968331;28;19926;-69
2022/11/06 06:08:45;;;;;;;;;;;7.60;99.90;;;;;;4967018;28;19933;-68
2022/11/06 06:11:12;;;;;;;;;;;7.60;99.90;;;;;;4966861;28;19933;-69
2022/11/06 06:13:40;;;;;;;;;;;7.50;99.90;;;;;;4955288;28;20305;-69
2022/11/06 06:16:07;;;;;;;;;;;7.60;99.90;;;;;;4965786;28;19927;-68
2022/11/06 06:18:34;;;;;;;;;;;7.60;99.90;;;;;;4971626;28;19933;-69
2022/11/06 06:21:01;;;;;;;;;;;7.60;99.90;;;;;;4961507;28;19926;-69
2022/11/06 06:23:28;;;;;;;;;;;7.60;99.90;;;;;;4960741;28;19981;-70
2022/11/06 06:25:56;;;;;;;;;;;7.60;99.90;;;;;;4959019;28;19938;-69
2022/11/06 06:28:23;;;;;;;;;;;7.60;99.90;;;;;;4965427;28;20058;-69
2022/11/06 06:30:51;;;;;;;;;;;7.70;99.90;;;;;;4958452;28;19926;-68
2022/11/06 06:33:18;;;;;;;;;;;7.70;99.90;;;;;;4962107;28;19934;-69
2022/11/06 06:35:45;;;;;;;;;;;7.60;99.90;;;;;;4956454;28;20375;-70
2022/11/06 06:38:14;;;;;;;;;;;7.60;99.90;;;;;;4959912;28;19969;-70
2022/11/06 06:40:41;;;;;;;;;;;7.50;99.90;;;;;;4964248;28;19926;-69
2022/11/06 06:43:08;;;;;;;;;;;7.50;99.90;;;;;;4960069;28;19927;-70
2022/11/06 06:45:34;;;;;;;;;;;7.50;99.90;;;;;;4960587;28;19926;-71
2022/11/06 06:48:03;;;;;;;;;;;7.50;99.90;;;;;;4960843;28;19926;-72
2022/11/06 06:50:30;;;;;;;;;;;7.40;99.90;;;;;;4957769;28;19926;-72
2022/11/06 06:52:57;;;;;;;;;;;7.50;99.90;;;;;;4963711;28;19929;-72
2022/11/06 06:55:24;;;;;;;;;;;7.60;99.90;;;;;;4960359;28;20360;-69
2022/11/06 06:57:55;;;;;;;;;;;7.60;99.90;;;;;;4954336;28;19926;-74
2022/11/06 07:00:22;;;;;;;;;;;7.60;99.90;;;;;;4962130;28;19927;-72
2022/11/06 07:02:49;;;;;;;;;;;7.60;99.90;;;;;;4970658;28;19992;-70
2022/11/06 07:05:17;;;;;;;;;;;7.60;99.90;;;;;;4971755;28;19926;-70
2022/11/06 07:07:44;;;;;;;;;;;7.60;99.90;;;;;;4976116;28;19930;-69
2022/11/06 07:10:10;;;;;;;;;;;7.70;99.90;;;;;;4966179;28;20365;-68
2022/11/06 07:12:37;;;;;;;;;;;7.70;99.90;;;;;;4971699;28;19926;-69
2022/11/06 07:15:04;;;;;;;;;;;7.70;99.90;;;;;;4960741;28;20456;-68
2022/11/06 07:17:31;;;;;;;;;;;7.80;99.90;;;;;;4960467;28;20321;-69
2022/11/06 07:19:58;;;;;;;;;;;7.90;99.90;;;;;;4960400;28;20427;-69
2022/11/06 07:22:27;;;;;;;;;;;8.00;99.90;;;;;;4961776;28;19930;-69
2022/11/06 07:24:54;;;;;;;;;;;8.00;99.90;;;;;;4960966;28;19965;-68
2022/11/06 07:27:21;;;;;;;;;;;8.10;99.90;;;;;;4954910;28;19934;-70
2022/11/06 07:29:48;;;;;;;;;;;8.30;99.90;;;;;;4967878;28;19926;-70
2022/11/06 07:32:14;;;;;;;;;;;8.40;99.90;;;;;;4960471;28;19926;-68
2022/11/06 07:34:41;;;;;;;;;;;8.50;99.90;;;;;;4969699;28;19927;-70
2022/11/06 07:37:08;;;;;;;;;;;8.60;99.90;;;;;;4963762;28;19926;-68
2022/11/06 07:39:36;;;;;;;;;;;8.60;99.90;;;;;;4966655;28;19927;-67
2022/11/06 07:42:03;;;;;;;;;;;8.70;99.90;;;;;;4972787;28;19933;-68
2022/11/06 07:44:35;;;;;;;;;;;8.70;99.90;;;;;;4973169;28;20331;-66
2022/11/06 07:47:02;;;;;;;;;;;8.80;99.90;;;;;;4968814;28;20029;-70
2022/11/06 07:49:31;;;;;;;;;;;8.80;99.90;;;;;;4973012;28;20436;-72
2022/11/06 07:51:57;;;;;;;;;;;8.80;99.90;;;;;;4974494;28;19926;-72
2022/11/06 07:54:24;;;;;;;;;;;8.90;99.90;;;;;;4968206;28;19934;-72
2022/11/06 07:56:52;;;;;;;;;;;9.00;99.90;;;;;;4962071;28;20448;-72
2022/11/06 07:59:19;;;;;;;;;;;9.20;99.90;;;;;;4959605;28;19930;-72
2022/11/06 08:01:46;;;;;;;;;;;9.30;99.90;;;;;;4962418;28;19926;-73
2022/11/06 08:04:13;;;;;;;;;;;9.50;99.90;;;;;;4970510;28;19926;-71
2022/11/06 08:06:39;;;;;;;;;;;9.60;99.90;;;;;;4972373;28;19962;-72
2022/11/06 08:09:07;;;;;;;;;;;9.80;99.90;;;;;;4969149;28;19933;-72
2022/11/06 08:11:33;;;;;;;;;;;9.80;99.90;;;;;;4967087;28;20017;-71
2022/11/06 08:14:02;;;;;;;;;;;9.90;99.90;;;;;;4973463;28;19969;-72
2022/11/06 08:16:29;;;;;;;;;;;9.90;99.90;;;;;;4971475;28;19926;-72
2022/11/06 08:18:55;;;;;;;;;;;10.00;99.90;;;;;;4971119;28;19926;-72
2022/11/06 08:21:22;;;;;;;;;;;10.00;99.90;;;;;;4969581;28;20282;-72
2022/11/06 08:23:49;;;;;;;;;;;10.10;99.90;;;;;;4970329;28;19974;-72
2022/11/06 08:26:16;;;;;;;;;;;10.20;99.90;;;;;;4972444;28;19979;-72
2022/11/06 08:28:42;;;;;;;;;;;10.30;99.90;;;;;;4981887;28;19957;-72
2022/11/06 08:31:10;;;;;;;;;;;10.40;99.90;;;;;;4965352;28;19926;-72
2022/11/06 08:33:38;;;;;;;;;;;10.60;99.90;;;;;;4972021;28;19926;-72
2022/11/06 08:36:05;;;;;;;;;;;10.70;99.90;;;;;;4972849;28;19937;-72
2022/11/06 08:38:32;;;;;;;;;;;10.70;99.90;;;;;;4970158;28;19926;-72
2022/11/06 08:41:03;;;;;;;;;;;10.90;99.90;;;;;;4971519;28;20469;-72
2022/11/06 08:43:30;;;;;;;;;;;10.90;99.90;;;;;;4970964;28;19934;-71
2022/11/06 08:45:57;;;;;;;;;;;11.00;99.90;;;;;;4973109;28;19926;-72
2022/11/06 08:48:25;;;;;;;;;;;11.10;99.90;;;;;;4971548;28;19927;-71
2022/11/06 08:50:52;;;;;;;;;;;11.20;99.90;;;;;;4962343;28;19926;-72
2022/11/06 08:53:19;;;;;;;;;;;11.30;99.90;;;;;;4971534;28;19930;-72
2022/11/06 08:55:45;;;;;;;;;;;11.40;99.90;;;;;;4968120;28;19930;-72
2022/11/06 08:58:12;;;;;;;;;;;11.60;99.90;;;;;;4968574;28;19927;-72
2022/11/06 09:00:39;;;;;;;;;;;11.80;99.90;;;;;;4956246;28;19926;-72
2022/11/06 09:03:07;;;;;;;;;;;12.00;99.90;;;;;;4965339;28;19931;-72
2022/11/06 09:05:35;;;;;;;;;;;12.10;99.90;;;;;;4966281;28;19926;-72
2022/11/06 09:08:02;;;;;;;;;;;12.20;99.90;;;;;;4965360;28;19943;-71
2022/11/06 09:10:29;;;;;;;;;;;12.20;99.90;;;;;;4962309;28;19927;-72
2022/11/06 09:12:57;;;;;;;;;;;12.20;99.90;;;;;;4961985;28;19933;-74
2022/11/06 09:15:24;;;;;;;;;;;12.20;99.90;;;;;;4971484;28;19926;-72
2022/11/06 09:17:51;;;;;;;;;;;12.30;99.90;;;;;;4960719;28;19930;-69
2022/11/06 09:20:19;;;;;;;;;;;12.40;99.90;;;;;;4966282;28;19926;-76
2022/11/06 09:22:47;;;;;;;;;;;12.50;99.90;;;;;;4969302;28;19930;-74
2022/11/06 09:25:14;;;;;;;;;;;12.50;99.90;;;;;;4959143;28;19974;-77
2022/11/06 09:27:41;;;;;;;;;;;12.70;99.90;;;;;;4961030;28;19976;-71
2022/11/06 09:30:09;;;;;;;;;;;13.00;99.90;;;;;;4959417;28;20361;-68
2022/11/06 09:32:36;;;;;;;;;;;13.20;99.90;;;;;;4960555;28;19930;-72
2022/11/06 09:35:03;;;;;;;;;;;13.40;99.90;;;;;;4957190;28;19926;-72
2022/11/06 09:37:29;;;;;;;;;;;13.70;99.90;;;;;;4967186;28;19926;-72
2022/11/06 09:39:58;;;;;;;;;;;13.90;99.90;;;;;;4962324;28;20026;-72
2022/11/06 09:42:29;;;;;;;;;;;14.30;99.90;;;;;;4963955;28;19982;-72
2022/11/06 09:45:02;;;;;;;;;;;14.50;99.90;;;;;;4964159;28;19930;-71
2022/11/06 09:47:32;;;;;;;;;;;14.90;99.90;;;;;;4960864;28;19926;-71
2022/11/06 09:49:59;;;;;;;;;;;15.10;99.90;;;;;;4961403;28;20017;-71
2022/11/06 09:52:31;;;;;;;;;;;15.20;99.90;;;;;;4969404;28;19970;-73
2022/11/06 09:55:02;;;;;;;;;;;15.00;99.90;;;;;;4969441;28;19930;-72
2022/11/06 09:57:33;;;;;;;;;;;14.80;99.90;;;;;;4963394;28;19926;-70
2022/11/06 10:00:00;;;;;;;;;;;14.80;99.90;;;;;;4968469;28;19930;-72
2022/11/06 10:02:30;;;;;;;;;;;14.70;99.90;;;;;;4965060;28;19926;-72
2022/11/06 10:05:00;;;;;;;;;;;14.40;99.90;;;;;;4953877;28;20013;-72
2022/11/06 10:07:28;;;;;;;;;;;14.30;99.90;;;;;;4956923;28;19927;-72
2022/11/06 10:09:54;;;;;;;;;;;14.20;99.90;;;;;;4961089;28;20318;-72
2022/11/06 10:12:28;;;;;;;;;;;14.10;99.90;;;;;;4961811;28;19930;-72
2022/11/06 10:14:58;;;;;;;;;;;13.90;99.90;;;;;;4961238;28;20286;-72
2022/11/06 10:17:31;;;;;;;;;;;14.00;99.90;;;;;;4966022;28;19926;-72
2022/11/06 10:20:04;;;;;;;;;;;14.30;99.90;;;;;;4967568;28;20011;-72
2022/11/06 10:22:35;;;;;;;;;;;14.30;99.90;;;;;;4983387;28;19969;-72
2022/11/06 10:25:08;;;;;;;;;;;14.00;99.90;;;;;;4968128;28;19930;-73
2022/11/06 10:27:39;;;;;;;;;;;14.00;99.90;;;;;;4968686;28;19990;-72
2022/11/06 10:30:09;;;;;;;;;;;14.10;99.90;;;;;;4958136;28;19961;-70
2022/11/06 10:32:54;;;;;;;;;;;14.20;99.90;;;;;;4972238;28;19926;-73
2022/11/06 10:35:23;;;;;;;;;;;14.50;99.90;;;;;;4960514;28;20353;-72
2022/11/06 10:37:53;;;;;;;;;;;14.70;99.90;;;;;;4959728;28;19934;-72
2022/11/06 10:40:23;;;;;;;;;;;14.50;99.90;;;;;;4961022;28;19927;-73
2022/11/06 10:42:55;;;;;;;;;;;14.20;99.90;;;;;;4965165;28;20278;-72
2022/11/06 10:45:23;;;;;;;;;;;14.00;99.90;;;;;;4962191;28;20359;-73
2022/11/06 10:47:51;;;;;;;;;;;13.80;99.90;;;;;;4968980;28;19985;-73
2022/11/06 10:50:18;;;;;;;;;;;13.90;99.90;;;;;;4963598;28;19926;-73
2022/11/06 10:52:49;;;;;;;;;;;13.90;99.90;;;;;;4964993;28;19941;-73
2022/11/06 10:55:35;;;;;;;;;;;13.90;99.90;;;;;;4969249;28;19933;-71
2022/11/06 10:58:04;;;;;;;;;;;14.00;99.90;;;;;;4971307;28;19948;-72
2022/11/06 11:00:31;;;;;;;;;;;14.10;99.90;;;;;;4965638;28;19968;-72
2022/11/06 11:03:00;;;;;;;;;;;14.40;99.90;;;;;;4957663;28;19933;-72
2022/11/06 11:05:32;;;;;;;;;;;14.80;99.90;;;;;;4964739;28;19933;-72
2022/11/06 11:07:59;;;;;;;;;;;15.20;99.90;;;;;;4955871;28;19926;-71
2022/11/06 11:10:28;;;;;;;;;;;16.10;99.90;;;;;;4964872;28;19926;-72
2022/11/06 11:12:55;;;;;;;;;;;16.20;99.90;;;;;;4961401;28;20001;-72
2022/11/06 11:15:25;;;;;;;;;;;17.50;99.90;;;;;;4962833;28;19926;-72
2022/11/06 11:18:08;;;;;;;;;;;16.90;99.90;;;;;;4961454;28;20290;-74
2022/11/06 11:20:35;;;;;;;;;;;16.90;99.90;;;;;;4964511;28;20040;-70
2022/11/06 11:23:06;;;;;;;;;;;19.50;99.90;;;;;;4958302;28;19927;-68
2022/11/06 11:25:33;;;;;;;;;;;23.10;99.90;;;;;;4964447;28;19934;-71
2022/11/06 11:28:01;;;;;;;;;;;25.70;99.90;;;;;;4966301;28;19933;-70
2022/11/06 11:30:29;;;;;;;;;;;24.80;99.90;;;;;;4954439;28;19931;-69
2022/11/06 11:32:56;;;;;;;;;;;23.80;99.90;;;;;;4969074;28;19926;-71
2022/11/06 11:35:25;;;;;;;;;;;23.90;99.90;;;;;;4952635;28;19927;-71
2022/11/06 11:38:04;;;;;;;;;;;25.80;99.90;;;;;;4966781;28;19931;-72
2022/11/06 11:40:34;;;;;;;;;;;25.30;99.90;;;;;;4961416;28;19969;-71
2022/11/06 11:43:15;;;;;;;;;;;24.60;99.90;;;;;;4971528;28;19933;-71
2022/11/06 11:45:43;;;;;;;;;;;25.10;99.90;;;;;;4980618;28;19926;-70
2022/11/06 11:48:12;;;;;;;;;;;24.50;99.90;;;;;;4978360;28;19973;-71
2022/11/06 11:50:39;;;;;;;;;;;24.80;99.90;;;;;;4983291;28;19926;-71
2022/11/06 11:53:10;;;;;;;;;;;23.40;99.90;;;;;;4973267;28;19926;-70
2022/11/06 11:55:39;;;;;;;;;;;21.90;99.90;;;;;;4953133;28;19965;-71
2022/11/06 11:58:14;;;;;;;;;;;20.60;99.90;;;;;;4962691;28;19973;-70
2022/11/06 12:00:49;;;;;;;;;;;22.60;99.90;;;;;;4964549;28;19926;-71
2022/11/06 12:03:15;;;;;;;;;;;23.60;99.90;;;;;;4952446;28;19927;-70
2022/11/06 12:05:42;;;;;;;;;;;22.90;99.90;;;;;;4959918;28;19927;-70
2022/11/06 12:08:14;;;;;;;;;;;22.20;99.90;;;;;;4955831;28;19926;-71
2022/11/06 12:10:42;;;;;;;;;;;23.80;99.90;;;;;;4961227;28;19927;-70
2022/11/06 12:13:16;;;;;;;;;;;22.10;99.90;;;;;;4962098;28;19970;-71
2022/11/06 12:15:45;;;;;;;;;;;19.90;99.90;;;;;;4956739;28;19927;-70
2022/11/06 12:18:15;;;;;;;;;;;18.50;99.90;;;;;;4963680;28;19926;-71
2022/11/06 12:20:45;;;;;;;;;;;17.20;99.90;;;;;;4957847;28;19927;-71
2022/11/06 12:23:14;;;;;;;;;;;16.40;99.90;;;;;;4978760;28;19926;-70
2022/11/06 12:25:42;;;;;;;;;;;16.00;99.90;;;;;;4969779;28;19948;-71
2022/11/06 12:28:12;;;;;;;;;;;15.80;99.90;;;;;;4976587;28;19977;-70
2022/11/06 12:30:41;;;;;;;;;;;15.60;99.90;;;;;;4986279;28;19926;-71
2022/11/06 12:33:10;;;;;;;;;;;15.80;99.90;;;;;;4965049;28;19927;-72
2022/11/06 12:35:40;;;;;;;;;;;15.90;99.90;;;;;;4969297;28;19993;-71
2022/11/06 12:38:19;;;;;;;;;;;17.20;99.90;;;;;;4959311;28;19931;-72
2022/11/06 12:40:48;;;;;;;;;;;17.20;99.90;;;;;;4972633;28;19933;-71
2022/11/06 12:43:19;;;;;;;;;;;16.30;99.90;;;;;;4969960;28;20310;-71
2022/11/06 12:45:51;;;;;;;;;;;15.10;99.90;;;;;;4971268;28;20397;-72
2022/11/06 12:48:26;;;;;;;;;;;14.70;99.90;;;;;;4968239;28;19945;-71
2022/11/06 12:50:56;;;;;;;;;;;14.30;99.90;;;;;;4963056;28;20361;-72
2022/11/06 12:53:29;;;;;;;;;;;14.10;99.90;;;;;;4958454;28;19926;-71
2022/11/06 12:55:59;;;;;;;;;;;14.00;99.90;;;;;;4955455;28;19933;-72
2022/11/06 12:58:38;;;;;;;;;;;14.00;99.90;;;;;;4965819;28;19926;-72
2022/11/06 13:01:07;;;;;;;;;;;13.70;99.90;;;;;;4966708;28;19926;-71
2022/11/06 13:03:47;;;;;;;;;;;13.50;99.90;;;;;;4971295;28;19935;-71
2022/11/06 13:06:18;;;;;;;;;;;13.60;99.90;;;;;;4955589;28;19948;-73
2022/11/06 13:08:50;;;;;;;;;;;13.60;99.90;;;;;;4961999;28;19930;-72
2022/11/06 13:11:22;;;;;;;;;;;13.60;99.90;;;;;;4967681;28;19937;-72
2022/11/06 13:13:56;;;;;;;;;;;13.70;99.90;;;;;;4964332;28;20302;-72
2022/11/06 13:16:28;;;;;;;;;;;13.80;99.90;;;;;;4962243;28;19933;-70
2022/11/06 13:18:58;;;;;;;;;;;13.80;99.90;;;;;;4961112;28;19927;-70
2022/11/06 13:21:32;;;;;;;;;;;13.80;99.90;;;;;;4967460;28;19926;-70
2022/11/06 13:24:02;;;;;;;;;;;13.80;99.90;;;;;;4968210;28;19930;-70
2022/11/06 13:26:33;;;;;;;;;;;13.70;99.90;;;;;;4960391;28;19938;-70
2022/11/06 13:29:02;;;;;;;;;;;13.60;99.90;;;;;;4960812;28;19927;-74
2022/11/06 13:31:33;;;;;;;;;;;13.60;99.90;;;;;;4967985;28;19945;-72
2022/11/06 13:34:01;;;;;;;;;;;13.50;99.90;;;;;;4961459;28;19934;-72
2022/11/06 13:36:31;;;;;;;;;;;13.40;99.90;;;;;;4961717;28;19938;-72
2022/11/06 13:39:00;;;;;;;;;;;13.30;99.90;;;;;;4961231;28;19926;-71
2022/11/06 13:41:28;;;;;;;;;;;13.20;99.90;;;;;;4961271;28;19978;-71
2022/11/06 13:43:57;;;;;;;;;;;13.20;99.90;;;;;;4958426;28;19934;-71
2022/11/06 13:46:27;;;;;;;;;;;13.10;99.90;;;;;;4958077;28;19927;-72
2022/11/06 13:49:00;;;;;;;;;;;13.00;99.90;;;;;;4955247;28;20388;-71
2022/11/06 13:51:36;;;;;;;;;;;12.90;99.90;;;;;;4961623;28;19926;-72
2022/11/06 13:54:05;;;;;;;;;;;12.80;99.90;;;;;;4966623;28;19926;-72
2022/11/06 13:56:43;;;;;;;;;;;12.80;99.90;;;;;;4963150;28;20360;-72
2022/11/06 13:59:17;;;;;;;;;;;12.70;99.90;;;;;;4957087;28;19981;-72
2022/11/06 14:01:53;;;;;;;;;;;12.70;99.90;;;;;;4961961;28;19930;-71
2022/11/06 14:04:30;;;;;;;;;;;12.60;99.90;;;;;;4956738;28;20358;-72
2022/11/06 14:07:00;;;;;;;;;;;12.60;99.90;;;;;;4985818;28;19926;-70
2022/11/06 14:09:28;;;;;;;;;;;12.60;99.90;;;;;;4959925;28;20279;-72
2022/11/06 14:11:57;;;;;;;;;;;12.60;99.90;;;;;;4960091;28;19934;-72
2022/11/06 14:14:25;;;;;;;;;;;12.60;99.90;;;;;;4955882;28;19930;-72
2022/11/06 14:17:06;;;;;;;;;;;12.50;99.90;;;;;;4965451;28;20353;-72
2022/11/06 14:19:33;;;;;;;;;;;12.50;99.90;;;;;;4957874;28;19926;-72
2022/11/06 14:22:15;;;;;;;;;;;12.40;99.90;;;;;;4964426;28;19937;-72
2022/11/06 14:24:43;;;;;;;;;;;12.30;99.90;;;;;;4961978;28;19933;-72
2022/11/06 14:27:11;;;;;;;;;;;12.20;99.90;;;;;;4960322;28;19930;-71
2022/11/06 14:29:53;;;;;;;;;;;12.10;99.90;;;;;;4967177;28;19933;-71
2022/11/06 14:32:33;;;;;;;;;;;12.00;99.90;;;;;;4960469;28;19937;-72
2022/11/06 14:35:23;;;;;;;;;;;11.90;99.90;;;;;;4956558;28;20353;-72
2022/11/06 14:37:50;;;;;;;;;;;11.80;99.90;;;;;;4963927;28;19941;-70
2022/11/06 14:40:31;;;;;;;;;;;11.70;99.90;;;;;;4961688;28;19926;-72
2022/11/06 14:42:58;;;;;;;;;;;11.60;99.90;;;;;;4970249;28;19926;-71
2022/11/06 14:45:25;;;;;;;;;;;11.30;99.90;;;;;;4970196;28;19989;-72
2022/11/06 14:47:55;;;;;;;;;;;11.10;99.90;;;;;;4960291;28;19926;-71
2022/11/06 14:50:27;;;;;;;;;;;11.00;99.90;;;;;;4965254;28;19926;-72
2022/11/06 14:52:55;;;;;;;;;;;10.90;99.90;;;;;;4970125;28;19934;-72
2022/11/06 14:55:26;;;;;;;;;;;10.90;99.90;;;;;;4963451;28;19969;-72
2022/11/06 14:57:54;;;;;;;;;;;10.80;99.90;;;;;;4966501;28;19930;-72
2022/11/06 15:00:35;;;;;;;;;;;10.60;99.90;;;;;;4958517;28;19933;-72
2022/11/06 15:03:03;;;;;;;;;;;10.50;99.90;;;;;;4978679;28;20357;-72
2022/11/06 15:05:35;;;;;;;;;;;10.50;99.90;;;;;;4964637;28;19935;-72
2022/11/06 15:08:02;;;;;;;;;;;10.50;99.90;;;;;;4959645;28;19933;-71
2022/11/06 15:10:50;;;;;;;;;;;10.40;99.90;;;;;;4958664;28;19926;-72
2022/11/06 15:13:24;;;;;;;;;;;10.40;99.90;;;;;;4958068;28;20037;-72
2022/11/06 15:15:52;;;;;;;;;;;10.30;99.90;;;;;;4959045;28;19927;-72
2022/11/06 15:18:21;;;;;;;;;;;10.30;99.90;;;;;;4964742;28;19926;-72
2022/11/06 15:20:49;;;;;;;;;;;10.20;99.90;;;;;;4955257;28;19934;-72
2022/11/06 15:23:19;;;;;;;;;;;10.20;99.90;;;;;;4960827;28;19931;-72
2022/11/06 15:26:04;;;;;;;;;;;10.30;99.90;;;;;;4960145;28;19934;-73
2022/11/06 15:28:33;;;;;;;;;;;10.30;99.90;;;;;;4959805;28;20012;-72
2022/11/06 15:31:03;;;;;;;;;;;10.30;99.90;;;;;;4963941;28;19933;-73
2022/11/06 15:33:31;;;;;;;;;;;10.30;99.90;;;;;;4961493;28;20459;-73
2022/11/06 15:36:01;;;;;;;;;;;10.30;99.90;;;;;;4959322;28;19930;-73
2022/11/06 15:38:34;;;;;;;;;;;10.20;99.90;;;;;;4966099;28;19930;-73
2022/11/06 15:41:02;;;;;;;;;;;10.10;99.90;;;;;;4956658;28;19933;-73
2022/11/06 15:43:30;;;;;;;;;;;10.10;99.90;;;;;;4967958;28;19977;-72
2022/11/06 15:46:07;;;;;;;;;;;10.00;99.90;;;;;;4959387;28;19938;-73
2022/11/06 15:48:34;;;;;;;;;;;9.90;99.90;;;;;;4960456;28;19934;-71
2022/11/06 15:51:01;;;;;;;;;;;9.80;99.90;;;;;;4965001;28;19927;-72
2022/11/06 15:53:28;;;;;;;;;;;9.70;99.90;;;;;;4963295;28;19930;-72
2022/11/06 15:55:58;;;;;;;;;;;9.70;99.90;;;;;;4961724;28;19933;-76
2022/11/06 15:58:28;;;;;;;;;;;9.70;99.90;;;;;;4962215;28;19933;-72
2022/11/06 16:00:55;;;;;;;;;;;9.60;99.90;;;;;;4968860;28;20389;-72
2022/11/06 16:03:23;;;;;;;;;;;9.50;99.90;;;;;;4958519;28;19927;-72
2022/11/06 16:05:50;;;;;;;;;;;9.50;99.90;;;;;;4961381;28;19927;-72
2022/11/06 16:08:18;;;;;;;;;;;9.50;99.90;;;;;;4966456;28;19961;-73
2022/11/06 16:10:47;;;;;;;;;;;9.50;99.90;;;;;;4967032;28;19933;-73
2022/11/06 16:13:15;;;;;;;;;;;9.50;99.90;;;;;;4974259;28;19930;-73
2022/11/06 16:15:48;;;;;;;;;;;9.50;99.90;;;;;;4964194;28;19934;-73
2022/11/06 16:18:16;;;;;;;;;;;9.50;99.90;;;;;;4969509;28;19926;-74
2022/11/06 16:20:43;;;;;;;;;;;9.50;99.90;;;;;;4959527;28;19938;-74
2022/11/06 16:23:12;;;;;;;;;;;9.50;99.90;;;;;;4960656;28;20371;-73
2022/11/06 16:25:39;;;;;;;;;;;9.60;99.90;;;;;;4959164;28;19926;-74
2022/11/06 16:28:13;;;;;;;;;;;9.60;99.90;;;;;;4967052;28;19926;-73
2022/11/06 16:30:40;;;;;;;;;;;9.60;99.90;;;;;;4964410;28;19927;-72
2022/11/06 16:33:17;;;;;;;;;;;9.50;99.90;;;;;;4971146;28;20664;-73
2022/11/06 16:35:44;;;;;;;;;;;9.50;99.90;;;;;;4965462;28;20397;-73
2022/11/06 16:38:26;;;;;;;;;;;9.50;99.90;;;;;;4969008;28;19930;-73
2022/11/06 16:40:54;;;;;;;;;;;9.50;99.90;;;;;;4984860;28;20330;-72
2022/11/06 16:43:21;;;;;;;;;;;9.50;99.90;;;;;;4968309;28;19961;-72
2022/11/06 16:45:53;;;;;;;;;;;9.50;99.90;;;;;;4961154;28;19933;-73
2022/11/06 16:48:25;;;;;;;;;;;9.50;99.90;;;;;;4966171;28;19927;-73
2022/11/06 16:50:53;;;;;;;;;;;9.50;99.90;;;;;;4967592;28;19927;-73
2022/11/06 16:53:21;;;;;;;;;;;9.50;99.90;;;;;;4964983;28;20333;-74
2022/11/06 16:55:55;;;;;;;;;;;9.40;99.90;;;;;;4971103;28;19930;-72
2022/11/06 16:58:22;;;;;;;;;;;9.40;99.90;;;;;;4954815;28;19930;-73
2022/11/06 17:00:55;;;;;;;;;;;9.40;99.90;;;;;;4970762;28;19945;-73
2022/11/06 17:03:23;;;;;;;;;;;9.40;99.90;;;;;;4967656;28;19926;-76
2022/11/06 17:05:55;;;;;;;;;;;9.30;99.90;;;;;;4975715;28;19926;-69
2022/11/06 17:08:23;;;;;;;;;;;9.30;99.90;;;;;;4972749;28;20319;-72
2022/11/06 17:10:50;;;;;;;;;;;9.30;99.90;;;;;;4969202;28;19930;-72
2022/11/06 17:13:17;;;;;;;;;;;9.20;99.90;;;;;;4972279;28;19926;-74
2022/11/06 17:15:46;;;;;;;;;;;9.20;99.90;;;;;;4963900;28;19926;-76
2022/11/06 17:18:14;;;;;;;;;;;9.20;99.90;;;;;;4960838;28;19930;-74
2022/11/06 17:20:43;;;;;;;;;;;9.20;99.90;;;;;;4963530;28;19931;-74
2022/11/06 17:23:11;;;;;;;;;;;9.20;99.90;;;;;;4969190;28;19930;-78
2022/11/06 17:25:38;;;;;;;;;;;9.20;99.90;;;;;;4969293;28;19927;-74
2022/11/06 17:28:05;;;;;;;;;;;9.20;99.90;;;;;;4968693;28;19940;-74
2022/11/06 17:30:31;;;;;;;;;;;9.20;99.90;;;;;;4962847;28;19931;-74
2022/11/06 17:32:58;;;;;;;;;;;9.20;99.90;;;;;;4965453;28;19933;-71
2022/11/06 17:35:25;;;;;;;;;;;9.30;99.90;;;;;;4960800;28;19926;-74
2022/11/06 17:37:54;;;;;;;;;;;9.30;99.90;;;;;;4960782;28;19966;-73
2022/11/06 17:40:22;;;;;;;;;;;9.30;99.90;;;;;;4981896;23;19937;-69
2022/11/06 17:42:49;;;;;;;;;;;9.30;99.90;;;;;;4969694;28;20417;-69
2022/11/06 17:45:15;;;;;;;;;;;9.30;99.90;;;;;;4969820;28;20017;-69
2022/11/06 17:47:42;;;;;;;;;;;9.20;99.90;;;;;;4972939;28;20312;-69
2022/11/06 17:50:09;;;;;;;;;;;9.10;99.90;;;;;;4972099;28;20012;-69
2022/11/06 17:52:36;;;;;;;;;;;9.10;99.90;;;;;;4953620;28;19930;-72
2022/11/06 17:55:04;;;;;;;;;;;9.10;99.90;;;;;;4953602;28;20346;-71
2022/11/06 17:57:33;;;;;;;;;;;9.10;99.90;;;;;;4953725;29;19926;-70
2022/11/06 17:59:59;;;;;;;;;;;9.10;99.90;;;;;;4952115;28;19926;-72
2022/11/06 18:02:27;;;;;;;;;;;9.10;99.90;;;;;;4950088;28;19927;-73
2022/11/06 18:04:54;;;;;;;;;;;9.10;99.90;;;;;;4953178;28;19926;-69
2022/11/06 18:07:21;;;;;;;;;;;9.20;99.90;;;;;;4952419;28;19930;-70
2022/11/06 18:09:48;;;;;;;;;;;9.20;99.90;;;;;;4949386;28;19934;-68
2022/11/06 18:12:16;;;;;;;;;;;9.20;99.90;;;;;;4962613;28;19926;-68
2022/11/06 18:14:44;;;;;;;;;;;9.20;99.90;;;;;;4950248;28;19927;-69
2022/11/06 18:17:13;;;;;;;;;;;9.20;99.90;;;;;;4948002;29;20255;-68
2022/11/06 18:19:40;;;;;;;;;;;9.30;99.90;;;;;;4948243;28;19927;-67
2022/11/06 18:22:07;;;;;;;;;;;9.20;99.90;;;;;;4949249;28;19934;-68
2022/11/06 18:24:36;;;;;;;;;;;9.30;99.90;;;;;;4953183;28;19933;-66
2022/11/06 18:27:03;;;;;;;;;;;9.30;99.90;;;;;;4959559;28;20294;-66
2022/11/06 18:29:29;;;;;;;;;;;9.40;99.90;;;;;;4952207;28;19931;-67
2022/11/06 18:31:58;;;;;;;;;;;9.40;99.90;;;;;;4953069;28;20361;-67
2022/11/06 18:34:24;;;;;;;;;;;9.40;99.90;;;;;;4953060;29;19981;-67
2022/11/06 18:36:51;;;;;;;;;;;9.50;99.90;;;;;;4952937;28;20401;-66
2022/11/06 18:39:18;;;;;;;;;;;9.60;99.90;;;;;;4952978;29;19926;-67
2022/11/06 18:41:45;;;;;;;;;;;9.60;99.90;;;;;;4953170;28;19926;-66
2022/11/06 18:44:12;;;;;;;;;;;9.70;99.90;;;;;;4947141;29;19926;-66
2022/11/06 18:46:38;;;;;;;;;;;9.80;99.90;;;;;;4953062;28;19927;-66